sensor_id;sensor_type;location;lat;lon;timestamp;P1;durP1;ratioP1;P2;durP2;ratioP2
9465;SDS011;4771;48.726;9.006;2023-02-28T00:01:30;2.60;;;2.40;;
9465;SDS011;4771;48.726;9.006;2023-02-28T00:03:57;4.13;;;2.40;;
9465;SDS011;4771;48.726;9.006;2023-02-28T00:06:24;3.40;;;2.60;;
9465;SDS011;4771;48.726;9.006;2023-02-28T00:08:51;2.47;;;2.13;;
9465;SDS011;4771;48.726;9.006;2023-02-28T00:11:17;3.43;;;2.40;;
9465;SDS011;4771;48.726;9.006;2023-02-28T00:13:45;3.93;;;2.40;;
9465;SDS011;4771;48.726;9.006;2023-02-28T00:16:15;4.83;;;2.20;;
9465;SDS011;4771;48.726;9.006;2023-02-28T00:18:44;3.47;;;2.33;;
9465;SDS011;4771;48.726;9.006;2023-02-28T00:21:12;2.53;;;2.10;;
9465;SDS011;4771;48.726;9.006;2023-02-28T00:23:39;3.43;;;2.40;;
9465;SDS011;4771;48.726;9.006;2023-02-28T00:26:06;3.43;;;2.47;;
9465;SDS011;4771;48.726;9.006;2023-02-28T00:28:33;4.03;;;2.40;;
9465;SDS011;4771;48.726;9.006;2023-02-28T00:31:00;2.77;;;2.20;;
9465;SDS011;4771;48.726;9.006;2023-02-28T00:33:28;3.87;;;2.50;;
9465;SDS011;4771;48.726;9.006;2023-02-28T00:36:05;4.77;;;2.77;;
9465;SDS011;4771;48.726;9.006;2023-02-28T00:38:33;2.80;;;2.20;;
9465;SDS011;4771;48.726;9.006;2023-02-28T00:41:00;3.33;;;2.20;;
9465;SDS011;4771;48.726;9.006;2023-02-28T00:43:30;3.03;;;2.10;;
9465;SDS011;4771;48.726;9.006;2023-02-28T00:45:57;4.03;;;2.80;;
9465;SDS011;4771;48.726;9.006;2023-02-28T00:48:24;3.00;;;2.40;;
9465;SDS011;4771;48.726;9.006;2023-02-28T00:50:53;3.87;;;2.50;;
9465;SDS011;4771;48.726;9.006;2023-02-28T00:53:20;3.50;;;2.60;;
9465;SDS011;4771;48.726;9.006;2023-02-28T00:55:48;3.67;;;2.50;;
9465;SDS011;4771;48.726;9.006;2023-02-28T00:58:15;4.23;;;2.63;;
9465;SDS011;4771;48.726;9.006;2023-02-28T01:00:42;3.70;;;2.60;;
9465;SDS011;4771;48.726;9.006;2023-02-28T01:03:14;4.93;;;2.57;;
9465;SDS011;4771;48.726;9.006;2023-02-28T01:05:41;3.93;;;2.73;;
9465;SDS011;4771;48.726;9.006;2023-02-28T01:08:09;2.70;;;2.50;;
9465;SDS011;4771;48.726;9.006;2023-02-28T01:10:36;5.77;;;2.90;;
9465;SDS011;4771;48.726;9.006;2023-02-28T01:13:03;4.40;;;2.67;;
9465;SDS011;4771;48.726;9.006;2023-02-28T01:15:30;5.07;;;2.80;;
9465;SDS011;4771;48.726;9.006;2023-02-28T01:17:57;4.17;;;2.70;;
9465;SDS011;4771;48.726;9.006;2023-02-28T01:20:24;3.43;;;2.60;;
9465;SDS011;4771;48.726;9.006;2023-02-28T01:22:51;3.67;;;2.63;;
9465;SDS011;4771;48.726;9.006;2023-02-28T01:25:19;3.23;;;2.50;;
9465;SDS011;4771;48.726;9.006;2023-02-28T01:27:46;3.27;;;2.40;;
9465;SDS011;4771;48.726;9.006;2023-02-28T01:30:13;3.60;;;2.40;;
9465;SDS011;4771;48.726;9.006;2023-02-28T01:32:40;3.00;;;2.60;;
9465;SDS011;4771;48.726;9.006;2023-02-28T01:35:07;5.97;;;2.70;;
9465;SDS011;4771;48.726;9.006;2023-02-28T01:37:34;3.80;;;2.70;;
9465;SDS011;4771;48.726;9.006;2023-02-28T01:40:01;4.63;;;2.80;;
9465;SDS011;4771;48.726;9.006;2023-02-28T01:42:30;4.60;;;2.50;;
9465;SDS011;4771;48.726;9.006;2023-02-28T01:44:58;3.83;;;2.93;;
9465;SDS011;4771;48.726;9.006;2023-02-28T01:47:28;4.30;;;2.80;;
9465;SDS011;4771;48.726;9.006;2023-02-28T01:49:57;3.13;;;2.80;;
9465;SDS011;4771;48.726;9.006;2023-02-28T01:52:25;4.47;;;2.93;;
9465;SDS011;4771;48.726;9.006;2023-02-28T01:54:54;3.03;;;2.70;;
9465;SDS011;4771;48.726;9.006;2023-02-28T01:57:25;3.37;;;2.87;;
9465;SDS011;4771;48.726;9.006;2023-02-28T01:59:57;7.27;;;3.40;;
9465;SDS011;4771;48.726;9.006;2023-02-28T02:02:32;3.17;;;2.87;;
9465;SDS011;4771;48.726;9.006;2023-02-28T02:05:02;3.87;;;3.00;;
9465;SDS011;4771;48.726;9.006;2023-02-28T02:07:33;3.57;;;2.90;;
9465;SDS011;4771;48.726;9.006;2023-02-28T02:10:04;4.53;;;3.00;;
9465;SDS011;4771;48.726;9.006;2023-02-28T02:12:47;3.47;;;2.90;;
9465;SDS011;4771;48.726;9.006;2023-02-28T02:15:26;4.33;;;3.23;;
9465;SDS011;4771;48.726;9.006;2023-02-28T02:17:59;4.10;;;3.20;;
9465;SDS011;4771;48.726;9.006;2023-02-28T02:20:38;6.50;;;3.03;;
9465;SDS011;4771;48.726;9.006;2023-02-28T02:23:34;3.77;;;3.23;;
9465;SDS011;4771;48.726;9.006;2023-02-28T02:26:30;4.47;;;2.90;;
9465;SDS011;4771;48.726;9.006;2023-02-28T02:35:34;5.03;;;3.27;;
9465;SDS011;4771;48.726;9.006;2023-02-28T02:38:08;5.60;;;3.43;;
9465;SDS011;4771;48.726;9.006;2023-02-28T02:40:41;5.90;;;3.53;;
9465;SDS011;4771;48.726;9.006;2023-02-28T02:43:15;3.63;;;3.10;;
9465;SDS011;4771;48.726;9.006;2023-02-28T02:45:46;4.00;;;3.43;;
9465;SDS011;4771;48.726;9.006;2023-02-28T02:48:19;4.77;;;3.43;;
9465;SDS011;4771;48.726;9.006;2023-02-28T02:50:54;6.60;;;3.20;;
9465;SDS011;4771;48.726;9.006;2023-02-28T02:53:24;4.93;;;3.47;;
9465;SDS011;4771;48.726;9.006;2023-02-28T02:55:55;3.97;;;3.40;;
9465;SDS011;4771;48.726;9.006;2023-02-28T02:58:26;4.17;;;3.70;;
9465;SDS011;4771;48.726;9.006;2023-02-28T03:00:57;5.30;;;3.20;;
9465;SDS011;4771;48.726;9.006;2023-02-28T03:03:26;6.17;;;3.43;;
9465;SDS011;4771;48.726;9.006;2023-02-28T03:05:57;4.13;;;3.60;;
9465;SDS011;4771;48.726;9.006;2023-02-28T03:08:26;5.23;;;3.53;;
9465;SDS011;4771;48.726;9.006;2023-02-28T03:10:55;4.90;;;3.40;;
9465;SDS011;4771;48.726;9.006;2023-02-28T03:13:33;3.70;;;3.20;;
9465;SDS011;4771;48.726;9.006;2023-02-28T03:16:22;4.53;;;3.47;;
9465;SDS011;4771;48.726;9.006;2023-02-28T03:19:03;5.13;;;3.67;;
9465;SDS011;4771;48.726;9.006;2023-02-28T03:21:43;4.73;;;3.50;;
9465;SDS011;4771;48.726;9.006;2023-02-28T03:24:21;4.23;;;3.70;;
9465;SDS011;4771;48.726;9.006;2023-02-28T03:26:53;3.77;;;3.30;;
9465;SDS011;4771;48.726;9.006;2023-02-28T03:29:27;5.97;;;4.00;;
9465;SDS011;4771;48.726;9.006;2023-02-28T03:31:59;3.70;;;3.33;;
9465;SDS011;4771;48.726;9.006;2023-02-28T03:34:33;6.27;;;3.37;;
9465;SDS011;4771;48.726;9.006;2023-02-28T03:37:06;5.40;;;3.90;;
9465;SDS011;4771;48.726;9.006;2023-02-28T03:39:36;4.97;;;3.70;;
9465;SDS011;4771;48.726;9.006;2023-02-28T03:42:06;4.40;;;3.60;;
9465;SDS011;4771;48.726;9.006;2023-02-28T03:44:37;4.37;;;3.97;;
9465;SDS011;4771;48.726;9.006;2023-02-28T03:47:08;5.40;;;3.13;;
9465;SDS011;4771;48.726;9.006;2023-02-28T03:49:40;5.37;;;3.70;;
9465;SDS011;4771;48.726;9.006;2023-02-28T03:52:10;3.80;;;3.40;;
9465;SDS011;4771;48.726;9.006;2023-02-28T03:54:39;5.37;;;3.70;;
9465;SDS011;4771;48.726;9.006;2023-02-28T03:57:11;6.10;;;3.80;;
9465;SDS011;4771;48.726;9.006;2023-02-28T03:59:47;5.80;;;3.83;;
9465;SDS011;4771;48.726;9.006;2023-02-28T04:02:18;7.10;;;3.50;;
9465;SDS011;4771;48.726;9.006;2023-02-28T04:04:45;4.33;;;3.40;;
9465;SDS011;4771;48.726;9.006;2023-02-28T04:07:15;4.60;;;3.40;;
9465;SDS011;4771;48.726;9.006;2023-02-28T04:09:42;3.93;;;3.47;;
9465;SDS011;4771;48.726;9.006;2023-02-28T04:12:09;4.83;;;3.97;;
9465;SDS011;4771;48.726;9.006;2023-02-28T04:14:36;6.63;;;3.80;;
9465;SDS011;4771;48.726;9.006;2023-02-28T04:17:03;5.40;;;3.97;;
9465;SDS011;4771;48.726;9.006;2023-02-28T04:19:30;4.67;;;3.60;;
9465;SDS011;4771;48.726;9.006;2023-02-28T04:21:56;4.50;;;3.67;;
9465;SDS011;4771;48.726;9.006;2023-02-28T04:24:25;4.90;;;3.97;;
9465;SDS011;4771;48.726;9.006;2023-02-28T04:26:54;5.13;;;3.83;;
9465;SDS011;4771;48.726;9.006;2023-02-28T04:29:23;4.00;;;3.60;;
9465;SDS011;4771;48.726;9.006;2023-02-28T04:31:51;4.93;;;4.10;;
9465;SDS011;4771;48.726;9.006;2023-02-28T04:34:19;6.17;;;4.03;;
9465;SDS011;4771;48.726;9.006;2023-02-28T04:36:46;4.60;;;4.00;;
9465;SDS011;4771;48.726;9.006;2023-02-28T04:39:15;5.93;;;3.50;;
9465;SDS011;4771;48.726;9.006;2023-02-28T04:41:44;4.70;;;3.87;;
9465;SDS011;4771;48.726;9.006;2023-02-28T04:44:11;7.73;;;4.03;;
9465;SDS011;4771;48.726;9.006;2023-02-28T04:46:38;5.70;;;4.07;;
9465;SDS011;4771;48.726;9.006;2023-02-28T04:49:05;4.20;;;3.43;;
9465;SDS011;4771;48.726;9.006;2023-02-28T04:51:32;6.47;;;4.00;;
9465;SDS011;4771;48.726;9.006;2023-02-28T04:53:59;4.40;;;4.00;;
9465;SDS011;4771;48.726;9.006;2023-02-28T04:56:26;5.93;;;4.17;;
9465;SDS011;4771;48.726;9.006;2023-02-28T04:58:54;5.70;;;3.90;;
9465;SDS011;4771;48.726;9.006;2023-02-28T05:01:22;6.80;;;4.07;;
9465;SDS011;4771;48.726;9.006;2023-02-28T05:03:51;6.57;;;4.10;;
9465;SDS011;4771;48.726;9.006;2023-02-28T05:06:20;6.30;;;4.27;;
9465;SDS011;4771;48.726;9.006;2023-02-28T05:08:48;7.13;;;4.10;;
9465;SDS011;4771;48.726;9.006;2023-02-28T05:11:16;5.03;;;4.40;;
9465;SDS011;4771;48.726;9.006;2023-02-28T05:13:44;7.17;;;4.30;;
9465;SDS011;4771;48.726;9.006;2023-02-28T05:16:13;5.77;;;4.37;;
9465;SDS011;4771;48.726;9.006;2023-02-28T05:18:40;7.57;;;4.47;;
9465;SDS011;4771;48.726;9.006;2023-02-28T05:21:12;6.63;;;4.70;;
9465;SDS011;4771;48.726;9.006;2023-02-28T05:23:52;6.23;;;4.20;;
9465;SDS011;4771;48.726;9.006;2023-02-28T05:26:19;5.77;;;4.40;;
9465;SDS011;4771;48.726;9.006;2023-02-28T05:28:46;6.93;;;4.17;;
9465;SDS011;4771;48.726;9.006;2023-02-28T05:31:14;5.90;;;4.20;;
9465;SDS011;4771;48.726;9.006;2023-02-28T05:33:41;9.40;;;4.93;;
9465;SDS011;4771;48.726;9.006;2023-02-28T05:36:08;8.33;;;4.57;;
9465;SDS011;4771;48.726;9.006;2023-02-28T05:38:35;7.20;;;5.13;;
9465;SDS011;4771;48.726;9.006;2023-02-28T05:41:04;8.60;;;5.10;;
9465;SDS011;4771;48.726;9.006;2023-02-28T05:43:32;10.07;;;5.97;;
9465;SDS011;4771;48.726;9.006;2023-02-28T05:46:01;11.43;;;8.10;;
9465;SDS011;4771;48.726;9.006;2023-02-28T05:48:31;10.73;;;8.53;;
9465;SDS011;4771;48.726;9.006;2023-02-28T05:50:58;8.87;;;6.00;;
9465;SDS011;4771;48.726;9.006;2023-02-28T05:53:25;7.17;;;5.07;;
9465;SDS011;4771;48.726;9.006;2023-02-28T05:55:52;7.77;;;4.70;;
9465;SDS011;4771;48.726;9.006;2023-02-28T05:58:19;7.83;;;5.10;;
9465;SDS011;4771;48.726;9.006;2023-02-28T06:00:46;8.70;;;5.20;;
9465;SDS011;4771;48.726;9.006;2023-02-28T06:03:12;6.80;;;5.20;;
9465;SDS011;4771;48.726;9.006;2023-02-28T06:05:41;8.60;;;5.93;;
9465;SDS011;4771;48.726;9.006;2023-02-28T06:08:08;8.87;;;5.80;;
9465;SDS011;4771;48.726;9.006;2023-02-28T06:10:34;7.53;;;5.77;;
9465;SDS011;4771;48.726;9.006;2023-02-28T06:13:01;10.27;;;5.97;;
9465;SDS011;4771;48.726;9.006;2023-02-28T06:15:29;9.10;;;6.60;;
9465;SDS011;4771;48.726;9.006;2023-02-28T06:17:56;7.30;;;5.50;;
9465;SDS011;4771;48.726;9.006;2023-02-28T06:20:24;7.97;;;6.07;;
9465;SDS011;4771;48.726;9.006;2023-02-28T06:22:55;9.37;;;5.40;;
9465;SDS011;4771;48.726;9.006;2023-02-28T06:25:23;8.53;;;6.07;;
9465;SDS011;4771;48.726;9.006;2023-02-28T06:27:50;6.80;;;5.90;;
9465;SDS011;4771;48.726;9.006;2023-02-28T06:30:17;7.53;;;5.60;;
9465;SDS011;4771;48.726;9.006;2023-02-28T06:32:48;7.77;;;5.47;;
9465;SDS011;4771;48.726;9.006;2023-02-28T06:35:15;7.70;;;5.77;;
9465;SDS011;4771;48.726;9.006;2023-02-28T06:37:42;8.63;;;6.03;;
9465;SDS011;4771;48.726;9.006;2023-02-28T06:40:11;9.70;;;6.33;;
9465;SDS011;4771;48.726;9.006;2023-02-28T06:42:38;10.70;;;5.70;;
9465;SDS011;4771;48.726;9.006;2023-02-28T06:45:06;8.60;;;6.00;;
9465;SDS011;4771;48.726;9.006;2023-02-28T06:47:34;10.13;;;6.07;;
9465;SDS011;4771;48.726;9.006;2023-02-28T06:50:01;7.43;;;5.27;;
9465;SDS011;4771;48.726;9.006;2023-02-28T06:52:28;8.80;;;6.00;;
9465;SDS011;4771;48.726;9.006;2023-02-28T06:54:55;10.57;;;6.30;;
9465;SDS011;4771;48.726;9.006;2023-02-28T06:57:28;9.23;;;6.03;;
9465;SDS011;4771;48.726;9.006;2023-02-28T06:59:57;10.57;;;6.33;;
9465;SDS011;4771;48.726;9.006;2023-02-28T07:02:24;9.90;;;6.97;;
9465;SDS011;4771;48.726;9.006;2023-02-28T07:04:51;10.13;;;6.40;;
9465;SDS011;4771;48.726;9.006;2023-02-28T07:07:18;9.10;;;6.47;;
9465;SDS011;4771;48.726;9.006;2023-02-28T07:09:45;8.57;;;5.83;;
9465;SDS011;4771;48.726;9.006;2023-02-28T07:12:12;10.47;;;6.20;;
9465;SDS011;4771;48.726;9.006;2023-02-28T07:14:40;8.13;;;6.10;;
9465;SDS011;4771;48.726;9.006;2023-02-28T07:17:07;10.13;;;6.10;;
9465;SDS011;4771;48.726;9.006;2023-02-28T07:19:35;9.30;;;5.80;;
9465;SDS011;4771;48.726;9.006;2023-02-28T07:22:02;9.87;;;6.67;;
9465;SDS011;4771;48.726;9.006;2023-02-28T07:24:29;11.33;;;6.70;;
9465;SDS011;4771;48.726;9.006;2023-02-28T07:26:56;8.03;;;6.30;;
9465;SDS011;4771;48.726;9.006;2023-02-28T07:29:24;9.40;;;6.73;;
9465;SDS011;4771;48.726;9.006;2023-02-28T07:31:52;11.40;;;6.77;;
9465;SDS011;4771;48.726;9.006;2023-02-28T07:34:19;8.97;;;6.33;;
9465;SDS011;4771;48.726;9.006;2023-02-28T07:36:46;9.00;;;6.33;;
9465;SDS011;4771;48.726;9.006;2023-02-28T07:39:13;8.63;;;5.87;;
9465;SDS011;4771;48.726;9.006;2023-02-28T07:41:40;10.93;;;6.57;;
9465;SDS011;4771;48.726;9.006;2023-02-28T07:44:09;7.93;;;5.87;;
9465;SDS011;4771;48.726;9.006;2023-02-28T07:46:36;10.00;;;6.47;;
9465;SDS011;4771;48.726;9.006;2023-02-28T07:49:05;10.77;;;6.03;;
9465;SDS011;4771;48.726;9.006;2023-02-28T07:51:32;7.97;;;6.13;;
9465;SDS011;4771;48.726;9.006;2023-02-28T07:53:59;7.27;;;6.20;;
9465;SDS011;4771;48.726;9.006;2023-02-28T07:56:26;7.53;;;5.93;;
9465;SDS011;4771;48.726;9.006;2023-02-28T07:58:52;7.47;;;5.73;;
9465;SDS011;4771;48.726;9.006;2023-02-28T08:01:20;9.17;;;5.97;;
9465;SDS011;4771;48.726;9.006;2023-02-28T08:03:46;9.73;;;6.63;;
9465;SDS011;4771;48.726;9.006;2023-02-28T08:06:19;8.53;;;6.53;;
9465;SDS011;4771;48.726;9.006;2023-02-28T08:08:47;8.93;;;6.57;;
9465;SDS011;4771;48.726;9.006;2023-02-28T08:11:14;11.20;;;6.10;;
9465;SDS011;4771;48.726;9.006;2023-02-28T08:13:42;8.97;;;6.53;;
9465;SDS011;4771;48.726;9.006;2023-02-28T08:16:09;8.83;;;6.43;;
9465;SDS011;4771;48.726;9.006;2023-02-28T08:18:39;8.17;;;6.83;;
9465;SDS011;4771;48.726;9.006;2023-02-28T08:21:06;10.67;;;7.27;;
9465;SDS011;4771;48.726;9.006;2023-02-28T08:23:35;8.77;;;6.77;;
9465;SDS011;4771;48.726;9.006;2023-02-28T08:26:02;11.83;;;6.70;;
9465;SDS011;4771;48.726;9.006;2023-02-28T08:28:29;8.90;;;6.30;;
9465;SDS011;4771;48.726;9.006;2023-02-28T08:30:56;8.30;;;6.47;;
9465;SDS011;4771;48.726;9.006;2023-02-28T08:33:23;10.43;;;7.10;;
9465;SDS011;4771;48.726;9.006;2023-02-28T08:35:52;10.03;;;6.77;;
9465;SDS011;4771;48.726;9.006;2023-02-28T08:38:20;8.57;;;7.07;;
9465;SDS011;4771;48.726;9.006;2023-02-28T08:40:48;9.03;;;6.60;;
9465;SDS011;4771;48.726;9.006;2023-02-28T08:43:15;10.23;;;7.20;;
9465;SDS011;4771;48.726;9.006;2023-02-28T08:45:42;15.60;;;10.17;;
9465;SDS011;4771;48.726;9.006;2023-02-28T08:48:09;9.43;;;7.53;;
9465;SDS011;4771;48.726;9.006;2023-02-28T08:50:36;10.33;;;7.40;;
9465;SDS011;4771;48.726;9.006;2023-02-28T08:53:02;9.20;;;6.73;;
9465;SDS011;4771;48.726;9.006;2023-02-28T08:55:29;10.00;;;7.37;;
9465;SDS011;4771;48.726;9.006;2023-02-28T08:57:57;9.73;;;6.80;;
9465;SDS011;4771;48.726;9.006;2023-02-28T09:00:26;8.77;;;6.77;;
9465;SDS011;4771;48.726;9.006;2023-02-28T09:02:53;8.37;;;6.80;;
9465;SDS011;4771;48.726;9.006;2023-02-28T09:05:20;8.23;;;7.00;;
9465;SDS011;4771;48.726;9.006;2023-02-28T09:07:46;14.63;;;7.77;;
9465;SDS011;4771;48.726;9.006;2023-02-28T09:10:14;9.57;;;7.33;;
9465;SDS011;4771;48.726;9.006;2023-02-28T09:12:40;9.90;;;7.57;;
9465;SDS011;4771;48.726;9.006;2023-02-28T09:15:09;9.97;;;7.40;;
9465;SDS011;4771;48.726;9.006;2023-02-28T09:17:36;9.80;;;7.10;;
9465;SDS011;4771;48.726;9.006;2023-02-28T09:20:04;10.10;;;7.37;;
9465;SDS011;4771;48.726;9.006;2023-02-28T09:22:31;11.90;;;8.03;;
9465;SDS011;4771;48.726;9.006;2023-02-28T09:24:58;8.77;;;7.10;;
9465;SDS011;4771;48.726;9.006;2023-02-28T09:27:25;9.43;;;7.10;;
9465;SDS011;4771;48.726;9.006;2023-02-28T09:29:52;12.40;;;7.00;;
9465;SDS011;4771;48.726;9.006;2023-02-28T09:32:20;9.63;;;7.63;;
9465;SDS011;4771;48.726;9.006;2023-02-28T09:34:47;11.67;;;8.37;;
9465;SDS011;4771;48.726;9.006;2023-02-28T09:37:14;8.73;;;7.23;;
9465;SDS011;4771;48.726;9.006;2023-02-28T09:39:41;11.80;;;7.17;;
9465;SDS011;4771;48.726;9.006;2023-02-28T09:42:11;9.87;;;6.87;;
9465;SDS011;4771;48.726;9.006;2023-02-28T09:44:47;11.33;;;7.60;;
9465;SDS011;4771;48.726;9.006;2023-02-28T09:47:16;9.33;;;7.40;;
9465;SDS011;4771;48.726;9.006;2023-02-28T09:50:00;11.83;;;8.13;;
9465;SDS011;4771;48.726;9.006;2023-02-28T09:52:33;10.00;;;7.80;;
9465;SDS011;4771;48.726;9.006;2023-02-28T09:55:00;11.70;;;7.40;;
9465;SDS011;4771;48.726;9.006;2023-02-28T09:57:39;9.90;;;7.80;;
9465;SDS011;4771;48.726;9.006;2023-02-28T10:00:12;9.60;;;7.83;;
9465;SDS011;4771;48.726;9.006;2023-02-28T10:02:56;10.93;;;7.90;;
9465;SDS011;4771;48.726;9.006;2023-02-28T10:05:37;12.83;;;7.37;;
9465;SDS011;4771;48.726;9.006;2023-02-28T10:08:10;9.90;;;7.87;;
9465;SDS011;4771;48.726;9.006;2023-02-28T10:10:40;9.07;;;7.30;;
9465;SDS011;4771;48.726;9.006;2023-02-28T10:13:13;10.63;;;7.27;;
9465;SDS011;4771;48.726;9.006;2023-02-28T10:15:46;13.03;;;7.83;;
9465;SDS011;4771;48.726;9.006;2023-02-28T10:18:18;8.90;;;6.83;;
9465;SDS011;4771;48.726;9.006;2023-02-28T10:20:50;11.33;;;7.73;;
9465;SDS011;4771;48.726;9.006;2023-02-28T10:23:21;10.47;;;7.73;;
9465;SDS011;4771;48.726;9.006;2023-02-28T10:25:50;12.03;;;7.80;;
9465;SDS011;4771;48.726;9.006;2023-02-28T10:28:21;8.57;;;7.10;;
9465;SDS011;4771;48.726;9.006;2023-02-28T10:30:48;9.10;;;7.13;;
9465;SDS011;4771;48.726;9.006;2023-02-28T10:33:20;15.13;;;7.20;;
9465;SDS011;4771;48.726;9.006;2023-02-28T10:35:52;10.40;;;7.63;;
9465;SDS011;4771;48.726;9.006;2023-02-28T10:38:20;11.00;;;6.83;;
9465;SDS011;4771;48.726;9.006;2023-02-28T10:40:49;9.90;;;7.60;;
9465;SDS011;4771;48.726;9.006;2023-02-28T10:43:20;11.87;;;7.63;;
9465;SDS011;4771;48.726;9.006;2023-02-28T10:45:53;11.33;;;7.63;;
9465;SDS011;4771;48.726;9.006;2023-02-28T10:48:27;10.87;;;7.30;;
9465;SDS011;4771;48.726;9.006;2023-02-28T10:51:02;10.67;;;7.40;;
9465;SDS011;4771;48.726;9.006;2023-02-28T10:53:34;9.47;;;7.00;;
9465;SDS011;4771;48.726;9.006;2023-02-28T10:56:05;11.87;;;8.10;;
9465;SDS011;4771;48.726;9.006;2023-02-28T10:58:54;10.10;;;7.20;;
9465;SDS011;4771;48.726;9.006;2023-02-28T11:01:23;12.03;;;8.10;;
9465;SDS011;4771;48.726;9.006;2023-02-28T11:04:00;11.83;;;7.40;;
9465;SDS011;4771;48.726;9.006;2023-02-28T11:06:30;10.47;;;7.80;;
9465;SDS011;4771;48.726;9.006;2023-02-28T11:08:59;15.77;;;7.80;;
9465;SDS011;4771;48.726;9.006;2023-02-28T11:11:30;10.10;;;7.83;;
9465;SDS011;4771;48.726;9.006;2023-02-28T11:14:14;12.50;;;7.50;;
9465;SDS011;4771;48.726;9.006;2023-02-28T11:16:46;11.93;;;7.93;;
9465;SDS011;4771;48.726;9.006;2023-02-28T11:19:16;11.60;;;8.10;;
9465;SDS011;4771;48.726;9.006;2023-02-28T11:21:51;9.07;;;7.67;;
9465;SDS011;4771;48.726;9.006;2023-02-28T11:24:21;10.47;;;7.73;;
9465;SDS011;4771;48.726;9.006;2023-02-28T11:26:51;8.03;;;6.60;;
9465;SDS011;4771;48.726;9.006;2023-02-28T11:29:19;9.07;;;6.90;;
9465;SDS011;4771;48.726;9.006;2023-02-28T11:32:11;9.60;;;7.77;;
9465;SDS011;4771;48.726;9.006;2023-02-28T11:34:42;12.00;;;7.43;;
9465;SDS011;4771;48.726;9.006;2023-02-28T11:37:12;11.37;;;8.30;;
9465;SDS011;4771;48.726;9.006;2023-02-28T11:39:41;10.43;;;8.20;;
9465;SDS011;4771;48.726;9.006;2023-02-28T11:42:22;11.30;;;7.70;;
9465;SDS011;4771;48.726;9.006;2023-02-28T11:45:01;9.83;;;7.53;;
9465;SDS011;4771;48.726;9.006;2023-02-28T11:47:37;11.17;;;8.23;;
9465;SDS011;4771;48.726;9.006;2023-02-28T11:50:14;10.70;;;7.50;;
9465;SDS011;4771;48.726;9.006;2023-02-28T11:52:51;10.63;;;7.57;;
9465;SDS011;4771;48.726;9.006;2023-02-28T11:55:20;9.60;;;7.57;;
9465;SDS011;4771;48.726;9.006;2023-02-28T11:57:55;10.27;;;7.77;;
9465;SDS011;4771;48.726;9.006;2023-02-28T12:00:31;10.67;;;7.33;;
9465;SDS011;4771;48.726;9.006;2023-02-28T12:03:08;10.27;;;7.70;;
9465;SDS011;4771;48.726;9.006;2023-02-28T12:05:49;9.53;;;7.67;;
9465;SDS011;4771;48.726;9.006;2023-02-28T12:08:26;8.23;;;6.83;;
9465;SDS011;4771;48.726;9.006;2023-02-28T12:11:09;9.97;;;7.63;;
9465;SDS011;4771;48.726;9.006;2023-02-28T12:13:43;9.67;;;7.43;;
9465;SDS011;4771;48.726;9.006;2023-02-28T12:16:23;12.77;;;7.73;;
9465;SDS011;4771;48.726;9.006;2023-02-28T12:24:51;12.50;;;7.40;;
9465;SDS011;4771;48.726;9.006;2023-02-28T12:27:27;10.50;;;7.63;;
9465;SDS011;4771;48.726;9.006;2023-02-28T12:29:58;9.83;;;6.90;;
9465;SDS011;4771;48.726;9.006;2023-02-28T12:32:30;7.53;;;6.73;;
9465;SDS011;4771;48.726;9.006;2023-02-28T12:35:01;8.87;;;7.47;;
9465;SDS011;4771;48.726;9.006;2023-02-28T12:37:32;10.97;;;6.97;;
9465;SDS011;4771;48.726;9.006;2023-02-28T12:40:08;8.10;;;7.10;;
9465;SDS011;4771;48.726;9.006;2023-02-28T12:42:39;9.53;;;6.93;;
9465;SDS011;4771;48.726;9.006;2023-02-28T12:45:12;8.90;;;7.17;;
9465;SDS011;4771;48.726;9.006;2023-02-28T12:47:44;9.00;;;6.73;;
9465;SDS011;4771;48.726;9.006;2023-02-28T12:50:15;7.77;;;6.87;;
9465;SDS011;4771;48.726;9.006;2023-02-28T12:52:46;9.50;;;7.03;;
9465;SDS011;4771;48.726;9.006;2023-02-28T12:55:21;11.00;;;7.93;;
9465;SDS011;4771;48.726;9.006;2023-02-28T12:57:58;7.93;;;6.63;;
9465;SDS011;4771;48.726;9.006;2023-02-28T13:00:32;8.03;;;7.00;;
9465;SDS011;4771;48.726;9.006;2023-02-28T13:03:10;8.60;;;7.23;;
9465;SDS011;4771;48.726;9.006;2023-02-28T13:06:07;10.07;;;7.13;;
9465;SDS011;4771;48.726;9.006;2023-02-28T13:08:59;7.70;;;6.57;;
9465;SDS011;4771;48.726;9.006;2023-02-28T13:11:31;9.00;;;6.90;;
9465;SDS011;4771;48.726;9.006;2023-02-28T13:14:05;10.63;;;7.40;;
9465;SDS011;4771;48.726;9.006;2023-02-28T13:16:48;10.33;;;7.10;;
9465;SDS011;4771;48.726;9.006;2023-02-28T13:19:25;8.73;;;7.23;;
9465;SDS011;4771;48.726;9.006;2023-02-28T13:21:54;9.03;;;6.70;;
9465;SDS011;4771;48.726;9.006;2023-02-28T13:24:40;9.90;;;6.90;;
9465;SDS011;4771;48.726;9.006;2023-02-28T13:36:10;8.47;;;7.13;;
9465;SDS011;4771;48.726;9.006;2023-02-28T13:38:49;8.93;;;6.53;;
9465;SDS011;4771;48.726;9.006;2023-02-28T13:44:15;10.13;;;7.50;;
9465;SDS011;4771;48.726;9.006;2023-02-28T13:49:46;9.03;;;7.27;;
9465;SDS011;4771;48.726;9.006;2023-02-28T13:52:15;9.33;;;7.67;;
9465;SDS011;4771;48.726;9.006;2023-02-28T13:54:56;8.93;;;6.97;;
9465;SDS011;4771;48.726;9.006;2023-02-28T13:57:41;10.00;;;6.83;;
9465;SDS011;4771;48.726;9.006;2023-02-28T14:00:27;10.30;;;7.00;;
9465;SDS011;4771;48.726;9.006;2023-02-28T14:03:17;9.10;;;7.30;;
9465;SDS011;4771;48.726;9.006;2023-02-28T14:06:08;47.53;;;27.47;;
9465;SDS011;4771;48.726;9.006;2023-02-28T14:08:51;8.17;;;6.50;;
9465;SDS011;4771;48.726;9.006;2023-02-28T14:11:32;8.63;;;7.00;;
9465;SDS011;4771;48.726;9.006;2023-02-28T14:14:00;10.80;;;7.60;;
9465;SDS011;4771;48.726;9.006;2023-02-28T14:16:36;11.17;;;7.40;;
9465;SDS011;4771;48.726;9.006;2023-02-28T14:19:09;8.73;;;7.27;;
9465;SDS011;4771;48.726;9.006;2023-02-28T14:21:39;10.13;;;6.90;;
9465;SDS011;4771;48.726;9.006;2023-02-28T14:24:22;9.00;;;7.10;;
9465;SDS011;4771;48.726;9.006;2023-02-28T14:27:00;8.17;;;7.13;;
9465;SDS011;4771;48.726;9.006;2023-02-28T14:29:42;9.67;;;7.93;;
9465;SDS011;4771;48.726;9.006;2023-02-28T14:32:27;9.57;;;7.13;;
9465;SDS011;4771;48.726;9.006;2023-02-28T14:35:02;10.93;;;6.93;;
9465;SDS011;4771;48.726;9.006;2023-02-28T14:37:32;8.37;;;7.00;;
9465;SDS011;4771;48.726;9.006;2023-02-28T14:40:04;9.33;;;6.63;;
9465;SDS011;4771;48.726;9.006;2023-02-28T14:42:38;10.00;;;6.60;;
9465;SDS011;4771;48.726;9.006;2023-02-28T14:45:16;8.00;;;6.77;;
9465;SDS011;4771;48.726;9.006;2023-02-28T14:47:46;8.07;;;6.43;;
9465;SDS011;4771;48.726;9.006;2023-02-28T14:50:26;9.37;;;6.37;;
9465;SDS011;4771;48.726;9.006;2023-02-28T14:52:56;9.07;;;7.00;;
9465;SDS011;4771;48.726;9.006;2023-02-28T14:55:24;8.83;;;7.30;;
9465;SDS011;4771;48.726;9.006;2023-02-28T14:57:53;8.40;;;6.57;;
9465;SDS011;4771;48.726;9.006;2023-02-28T15:00:23;8.50;;;6.90;;
9465;SDS011;4771;48.726;9.006;2023-02-28T15:02:53;9.30;;;6.67;;
9465;SDS011;4771;48.726;9.006;2023-02-28T15:05:25;9.83;;;7.00;;
9465;SDS011;4771;48.726;9.006;2023-02-28T15:08:00;9.57;;;7.13;;
9465;SDS011;4771;48.726;9.006;2023-02-28T15:10:32;8.33;;;6.70;;
9465;SDS011;4771;48.726;9.006;2023-02-28T15:13:00;9.93;;;7.57;;
9465;SDS011;4771;48.726;9.006;2023-02-28T15:15:33;11.37;;;7.10;;
9465;SDS011;4771;48.726;9.006;2023-02-28T15:18:08;8.83;;;7.03;;
9465;SDS011;4771;48.726;9.006;2023-02-28T15:20:42;8.77;;;6.70;;
9465;SDS011;4771;48.726;9.006;2023-02-28T15:23:10;8.77;;;7.43;;
9465;SDS011;4771;48.726;9.006;2023-02-28T15:25:37;7.77;;;6.70;;
9465;SDS011;4771;48.726;9.006;2023-02-28T15:28:09;8.23;;;7.13;;
9465;SDS011;4771;48.726;9.006;2023-02-28T15:30:49;9.60;;;7.30;;
9465;SDS011;4771;48.726;9.006;2023-02-28T15:33:20;7.47;;;6.43;;
9465;SDS011;4771;48.726;9.006;2023-02-28T15:35:48;9.10;;;6.67;;
9465;SDS011;4771;48.726;9.006;2023-02-28T15:38:17;9.07;;;7.23;;
9465;SDS011;4771;48.726;9.006;2023-02-28T15:40:49;9.47;;;7.30;;
9465;SDS011;4771;48.726;9.006;2023-02-28T15:43:23;8.33;;;6.90;;
9465;SDS011;4771;48.726;9.006;2023-02-28T15:45:52;10.67;;;7.33;;
9465;SDS011;4771;48.726;9.006;2023-02-28T15:48:25;8.27;;;6.93;;
9465;SDS011;4771;48.726;9.006;2023-02-28T15:50:54;9.40;;;7.33;;
9465;SDS011;4771;48.726;9.006;2023-02-28T15:53:24;9.80;;;6.87;;
9465;SDS011;4771;48.726;9.006;2023-02-28T15:55:55;11.27;;;7.40;;
9465;SDS011;4771;48.726;9.006;2023-02-28T15:58:26;9.87;;;7.20;;
9465;SDS011;4771;48.726;9.006;2023-02-28T16:01:00;8.27;;;6.63;;
9465;SDS011;4771;48.726;9.006;2023-02-28T16:03:43;10.43;;;7.30;;